Peotone Weather
Station Historical Data
 
Daily Summary for August 28, 2016 Units:  English    Metric   Both
« Previous Day
Next Day »
Daily Weekly Monthly Yearly Custom
  Current: High: Low: Average:
Temperature: 73.9 °F 75.6 °F 73.8 °F 74.8 °F
Dew Point: 71.1 °F 72.9 °F 71.1 °F 72 °F
Humidity: 91% 95% 89% 91%
Wind Speed: 2.3mph 6.9mph 0.0mph 2.7mph
Wind Gust: 2.3mph 8.1mph - -
WindWNW - - West
Pressure: 30.07 in 30.07 in 30.07 in -
Precipitation: 0.00 in      
Historical Graphs
 
 
Tabular Data for August 28, 2016
Time Temperature Dew Point Pressure Wind Wind Speed Wind Gust Humidity Rainfall Rate (Hourly) solar Conditions
00:00 73.9 °F 72.1 °F 30.07 in Calm     94% 0.00 in 0.00 W/m2
00:05 73.8 °F 72.3 °F 30.07 in South 1.1 mph 4.6 mph 95% 0.00 in 0.00 W/m2
00:10 74.4 °F 72.6 °F 30.07 in SW 2.3 mph 4.6 mph 94% 0.00 in 0.00 W/m2
00:15 75.0 °F 72.8 °F 30.07 in Calm   4.6 mph 93% 0.00 in 0.00 W/m2
00:20 75.0 °F 72.8 °F 30.07 in SSW 3.4 mph 3.4 mph 93% 0.00 in 0.00 W/m2
00:26 75.2 °F 72.7 °F 30.07 in SW 3.4 mph 5.8 mph 92% 0.00 in 0.00 W/m2
00:31 75.4 °F 72.9 °F 30.07 in WSW 4.6 mph 6.9 mph 92% 0.00 in 0.00 W/m2
00:36 75.6 °F 72.8 °F 30.07 in WSW 3.4 mph 5.8 mph 91% 0.00 in 0.00 W/m2
00:41 75.5 °F 72.4 °F 30.07 in WSW 2.3 mph 6.9 mph 90% 0.00 in 0.00 W/m2
00:46 75.5 °F 72.4 °F 30.07 in West 3.4 mph 3.4 mph 90% 0.00 in 0.00 W/m2
00:51 75.5 °F 72.0 °F 30.07 in West 3.4 mph 8.1 mph 89% 0.00 in 0.00 W/m2
00:56 75.4 °F 71.9 °F 30.07 in West 6.9 mph 6.9 mph 89% 0.00 in 0.00 W/m2
01:01 75.2 °F 71.7 °F 30.07 in WNW 3.4 mph 3.4 mph 89% 0.00 in 0.00 W/m2
01:06 75.1 °F 71.6 °F 30.07 in West 2.3 mph 4.6 mph 89% 0.00 in 0.00 W/m2
01:11 74.8 °F 71.7 °F 30.07 in WNW 3.4 mph 3.4 mph 90% 0.00 in 0.00 W/m2
01:16 74.5 °F 71.4 °F 30.07 in WNW 3.4 mph 3.4 mph 90% 0.00 in 0.00 W/m2
01:21 74.3 °F 71.2 °F 30.07 in WNW 1.1 mph 2.3 mph 90% 0.00 in 0.00 W/m2
01:26 74.2 °F 71.1 °F 30.07 in WNW 1.1 mph 1.1 mph 90% 0.00 in 0.00 W/m2
01:31 74.2 °F 71.1 °F 30.07 in WNW 3.4 mph 3.4 mph 90% 0.00 in 0.00 W/m2
01:36 74.2 °F 71.1 °F 30.07 in WNW 1.1 mph 2.3 mph 90% 0.00 in 0.00 W/m2
01:41 74.1 °F 71.3 °F 30.07 in WNW 3.4 mph 3.4 mph 91% 0.00 in 0.00 W/m2
01:47 73.9 °F 71.1 °F 30.07 in WNW 2.3 mph 2.3 mph 91% 0.00 in 0.00 W/m2
peotoneweather.com
Compliments of Weather Underground - 1.25 mb